createdAt,value
2023-04-21T00:04:32.868Z,0.47
2023-04-21T00:09:34.791Z,0.50
2023-04-21T00:14:36.572Z,0.60
2023-04-21T00:19:38.400Z,0.68
2023-04-21T00:24:40.238Z,0.80
2023-04-21T00:29:42.249Z,0.45
2023-04-21T00:34:44.042Z,0.60
2023-04-21T00:39:45.870Z,0.73
2023-04-21T00:44:47.665Z,0.60
2023-04-21T00:49:49.483Z,0.68
2023-04-21T00:54:51.364Z,0.65
2023-04-21T00:59:53.171Z,0.40
2023-04-21T01:04:55.082Z,0.63
2023-04-21T01:09:56.873Z,0.50
2023-04-21T01:14:58.761Z,0.65
2023-04-21T01:20:04.435Z,0.45
2023-04-21T01:25:07.472Z,0.50
2023-04-21T01:30:10.342Z,0.60
2023-04-21T01:35:12.204Z,0.60
2023-04-21T01:40:14.143Z,0.50
2023-04-21T01:45:15.953Z,0.75
2023-04-21T01:50:18.548Z,0.50
2023-04-21T01:55:20.693Z,0.77
2023-04-21T02:00:22.503Z,0.77
2023-04-21T02:05:24.414Z,0.60
2023-04-21T02:10:26.257Z,0.70
2023-04-21T02:15:28.056Z,0.98
2023-04-21T02:20:29.980Z,0.90
2023-04-21T02:25:31.740Z,0.70
2023-04-21T02:30:34.451Z,0.60
2023-04-21T02:35:36.244Z,0.82
2023-04-21T02:40:38.129Z,0.52
2023-04-21T02:45:39.982Z,0.80
2023-04-21T02:50:43.324Z,0.68
2023-04-21T02:55:45.207Z,0.65
2023-04-21T03:00:47.011Z,0.50
2023-04-21T03:05:48.903Z,0.70
2023-04-21T03:10:50.817Z,0.80
2023-04-21T03:15:53.101Z,0.70
2023-04-21T03:21:00.120Z,0.60
2023-04-21T03:26:07.311Z,0.50
2023-04-21T03:31:09.088Z,1.17
2023-04-21T03:36:11.335Z,0.75
2023-04-21T03:41:13.134Z,0.85
2023-04-21T03:46:22.719Z,0.90
2023-04-21T03:51:24.488Z,0.82
2023-04-21T03:56:26.335Z,0.93
2023-04-21T04:01:28.166Z,0.88
2023-04-21T04:06:30.109Z,0.80
2023-04-21T04:11:32.341Z,0.75
2023-04-21T04:16:36.051Z,1.00
2023-04-21T04:21:38.660Z,0.88
2023-04-21T04:26:40.419Z,0.90
2023-04-21T04:31:42.320Z,0.70
2023-04-21T04:36:44.673Z,0.88
2023-04-21T04:41:47.322Z,0.90
2023-04-21T04:46:49.888Z,0.75
2023-04-21T04:51:51.822Z,1.35
2023-04-21T04:56:53.589Z,0.80
2023-04-21T05:01:55.525Z,0.80
2023-04-21T05:06:57.397Z,0.90
2023-04-21T05:11:59.188Z,0.70
2023-04-21T05:17:01.262Z,0.70
2023-04-21T05:22:03.421Z,0.88
2023-04-21T05:27:05.456Z,0.80
2023-04-21T05:32:07.384Z,0.80
2023-04-21T05:37:11.576Z,0.82
2023-04-21T05:42:13.336Z,0.77
2023-04-21T05:47:15.123Z,0.85
2023-04-21T05:52:17.995Z,0.70
2023-04-21T05:57:19.856Z,1.15
2023-04-21T06:02:22.799Z,0.73
2023-04-21T06:07:24.670Z,1.20
2023-04-21T06:12:26.508Z,1.38
2023-04-21T06:17:28.291Z,1.98
2023-04-21T06:22:30.136Z,1.83
2023-04-21T06:27:31.986Z,2.42
2023-04-21T06:32:33.860Z,1.63
2023-04-21T06:37:35.713Z,2.25
2023-04-21T06:42:37.534Z,2.08
2023-04-21T06:47:39.534Z,1.40
2023-04-21T06:52:41.653Z,1.40
2023-04-21T06:57:43.705Z,1.83
2023-04-21T07:02:45.698Z,1.63
2023-04-21T07:07:47.859Z,2.05
2023-04-21T07:12:49.815Z,2.10
2023-04-21T07:17:51.764Z,2.53
2023-04-21T07:22:53.572Z,2.08
2023-04-21T07:27:55.358Z,1.77
2023-04-21T07:32:58.050Z,1.58
2023-04-21T07:37:59.870Z,2.60
2023-04-21T07:43:01.716Z,2.90
2023-04-21T07:48:03.614Z,2.22
2023-04-21T07:53:05.611Z,1.77
2023-04-21T07:58:07.845Z,1.42
2023-04-21T08:03:09.791Z,1.85
2023-04-21T08:08:12.256Z,1.67
2023-04-21T08:13:14.156Z,0.90
2023-04-21T08:18:18.642Z,1.50
2023-04-21T08:23:21.977Z,1.15
2023-04-21T08:28:23.907Z,1.45
2023-04-21T08:33:25.759Z,1.33
2023-04-21T08:38:27.609Z,1.50
2023-04-21T08:43:29.976Z,1.42
2023-04-21T08:48:35.307Z,1.92
2023-04-21T08:53:37.904Z,2.20
2023-04-21T08:58:39.856Z,2.40
2023-04-21T09:03:41.842Z,1.50
2023-04-21T09:08:52.745Z,1.40
2023-04-21T09:13:57.833Z,1.20
2023-04-21T09:19:01.069Z,0.98
2023-04-21T09:24:06.895Z,1.00
2023-04-21T09:29:09.362Z,0.90
2023-04-21T09:34:25.943Z,1.08
2023-04-21T09:39:43.131Z,1.27
2023-04-21T09:44:58.189Z,0.90
2023-04-21T09:50:12.559Z,0.80
2023-04-21T09:55:15.548Z,0.90
2023-04-21T10:00:19.093Z,0.82
2023-04-21T10:05:21.365Z,0.85
2023-04-21T10:10:27.617Z,0.80
2023-04-21T10:15:33.969Z,0.80
2023-04-21T10:20:52.576Z,1.20
2023-04-21T10:26:01.153Z,0.80
2023-04-21T10:31:20.110Z,1.05
2023-04-21T10:36:25.522Z,0.90
2023-04-21T10:41:28.480Z,0.60
2023-04-21T10:46:37.710Z,1.15
2023-04-21T10:51:57.922Z,0.68
2023-04-21T10:56:59.864Z,0.70
2023-04-21T11:02:03.614Z,0.88
2023-04-21T11:07:13.272Z,0.70
2023-04-21T11:12:18.349Z,0.70
2023-04-21T11:17:21.576Z,0.70
2023-04-21T11:22:25.655Z,0.80
2023-04-21T11:27:29.268Z,0.60
2023-04-21T11:32:31.204Z,0.77
2023-04-21T11:37:33.072Z,0.75
2023-04-21T11:42:35.092Z,0.73
2023-04-21T11:47:37.874Z,0.93
2023-04-21T11:52:39.969Z,0.75
2023-04-21T11:57:42.660Z,0.77
2023-04-21T12:02:44.863Z,0.70
2023-04-21T12:07:52.289Z,0.80
2023-04-21T12:12:56.588Z,0.68
2023-04-21T12:17:58.440Z,0.70
2023-04-21T12:23:01.241Z,0.90
2023-04-21T12:28:03.013Z,0.80
2023-04-21T12:33:05.087Z,0.57
2023-04-21T12:38:06.900Z,0.65
2023-04-21T12:43:08.763Z,0.60
2023-04-21T12:48:10.931Z,0.73
2023-04-21T12:53:13.719Z,0.95
2023-04-21T12:58:17.144Z,0.63
2023-04-21T13:03:19.045Z,0.80
2023-04-21T13:08:22.146Z,0.70
2023-04-21T13:13:23.993Z,0.90
2023-04-21T13:18:25.865Z,1.10
2023-04-21T13:23:27.687Z,1.05
2023-04-21T13:28:30.182Z,0.80
2023-04-21T13:33:35.201Z,1.25
2023-04-21T13:38:37.102Z,1.10
2023-04-21T13:43:38.874Z,1.60
2023-04-21T13:48:41.291Z,1.63
2023-04-21T13:53:43.164Z,1.52
2023-04-21T13:58:45.287Z,1.55
2023-04-21T14:03:47.432Z,1.45
2023-04-21T14:08:49.346Z,1.40
2023-04-21T14:14:04.842Z,1.63
2023-04-21T14:19:10.867Z,1.90
2023-04-21T14:24:12.682Z,1.48
2023-04-21T14:29:14.674Z,1.70
2023-04-21T14:34:16.490Z,1.60
2023-04-21T14:39:18.486Z,1.30
2023-04-21T14:44:20.417Z,1.30
2023-04-21T14:49:22.267Z,1.52
2023-04-21T14:54:24.093Z,1.40
2023-04-21T14:59:26.124Z,1.10
2023-04-21T15:04:28.242Z,1.02
2023-04-21T15:09:30.124Z,1.70
2023-04-21T15:14:32.312Z,1.25
2023-04-21T15:19:34.280Z,1.52
2023-04-21T15:24:36.292Z,1.10
2023-04-21T15:29:38.271Z,0.80
2023-04-21T15:34:40.263Z,1.30
2023-04-21T15:39:42.126Z,1.00
2023-04-21T15:44:43.942Z,1.23
2023-04-21T15:49:45.860Z,1.17
2023-04-21T15:54:47.795Z,1.00
2023-04-21T15:59:49.783Z,1.00
2023-04-21T16:04:52.233Z,1.30
2023-04-21T16:09:54.191Z,0.90
2023-04-21T16:15:04.112Z,0.82
2023-04-21T16:20:12.533Z,0.63
2023-04-21T16:25:16.333Z,0.90
2023-04-21T16:30:18.166Z,0.93
2023-04-21T16:35:19.997Z,0.88
2023-04-21T16:40:22.507Z,0.75
2023-04-21T16:45:24.417Z,0.70
2023-04-21T16:50:26.417Z,0.73
2023-04-21T16:55:28.659Z,1.08
2023-04-21T17:00:30.806Z,0.70
2023-04-21T17:05:32.721Z,1.05
2023-04-21T17:10:34.609Z,0.82
2023-04-21T17:15:36.462Z,0.63
2023-04-21T17:20:38.428Z,0.63
2023-04-21T17:25:41.123Z,0.80
2023-04-21T17:30:42.916Z,1.00
2023-04-21T17:36:00.000Z,1.73
2023-04-21T17:41:06.997Z,1.42
2023-04-21T17:46:08.785Z,1.58
2023-04-21T17:51:11.253Z,1.15
2023-04-21T17:56:14.593Z,1.10
2023-04-21T18:01:17.426Z,1.15
2023-04-21T18:06:23.222Z,1.10
2023-04-21T18:11:25.062Z,0.60
2023-04-21T18:16:27.293Z,1.30
2023-04-21T18:21:29.115Z,0.70
2023-04-21T18:26:31.980Z,1.48
2023-04-21T18:31:34.607Z,0.82
2023-04-21T18:36:38.340Z,0.60
2023-04-21T18:41:40.919Z,0.55
2023-04-21T18:46:43.056Z,0.80
2023-04-21T18:51:44.861Z,0.90
2023-04-21T18:56:46.910Z,0.80
2023-04-21T19:01:48.776Z,0.68
2023-04-21T19:06:50.713Z,0.55
2023-04-21T19:11:52.468Z,0.80
2023-04-21T19:16:54.416Z,0.50
2023-04-21T19:21:56.254Z,0.98
2023-04-21T19:27:05.728Z,1.10
2023-04-21T19:32:07.719Z,1.20
2023-04-21T19:37:09.581Z,1.00
2023-04-21T19:42:11.416Z,0.52
2023-04-21T19:47:13.283Z,0.65
2023-04-21T19:52:15.221Z,0.77
2023-04-21T19:57:17.828Z,1.08
2023-04-21T20:02:19.917Z,1.05
2023-04-21T20:07:22.131Z,1.15
2023-04-21T20:12:23.943Z,0.80
2023-04-21T20:17:27.006Z,1.70
2023-04-21T20:22:28.807Z,1.20
2023-04-21T20:27:30.941Z,0.50
2023-04-21T20:32:32.855Z,0.70
2023-04-21T20:37:36.154Z,0.80
2023-04-21T20:42:45.293Z,0.55
2023-04-21T20:47:47.101Z,0.93
2023-04-21T20:52:50.409Z,0.63
2023-04-21T20:57:52.168Z,1.08
2023-04-21T21:02:54.172Z,0.90
2023-04-21T21:07:57.117Z,0.85
2023-04-21T21:12:59.811Z,0.73
2023-04-21T21:18:01.956Z,0.63
2023-04-21T21:23:03.833Z,0.93
2023-04-21T21:28:05.646Z,1.67
2023-04-21T21:33:07.556Z,1.17
2023-04-21T21:38:09.453Z,0.70
2023-04-21T21:43:11.228Z,0.82
2023-04-21T21:48:13.577Z,0.70
2023-04-21T21:53:15.454Z,1.50
2023-04-21T21:58:17.401Z,1.02
2023-04-21T22:03:22.981Z,1.10
2023-04-21T22:08:25.056Z,1.27
2023-04-21T22:13:26.973Z,0.60
2023-04-21T22:18:30.192Z,0.85
2023-04-21T22:23:32.231Z,0.80
2023-04-21T22:28:33.987Z,0.85
2023-04-21T22:33:36.603Z,0.40
2023-04-21T22:38:38.712Z,0.80
2023-04-21T22:43:40.880Z,0.70
2023-04-21T22:48:46.750Z,0.52
2023-04-21T22:53:48.830Z,0.60
2023-04-21T22:58:50.749Z,0.68
2023-04-21T23:03:52.740Z,0.90
2023-04-21T23:08:54.667Z,0.60
2023-04-21T23:13:56.895Z,0.70
2023-04-21T23:18:58.773Z,0.50
2023-04-21T23:24:00.644Z,0.73
2023-04-21T23:29:02.435Z,0.50
2023-04-21T23:34:04.270Z,0.35
2023-04-21T23:39:06.419Z,0.38
2023-04-21T23:44:08.205Z,1.55
2023-04-21T23:49:10.001Z,0.45
2023-04-21T23:54:11.857Z,0.50
2023-04-21T23:59:13.593Z,0.43
